Time;durP1;ratioP1;P1;durP2;ratioP2;P2;SDS_P1;SDS_P2;PMS_P1;PMS_P2;Temp;Humidity;BMP_temperature;BMP_pressure;BME280_temperature;BME280_humidity;BME280_pressure;Samples;Min_cycle;Max_cycle;Signal;HPM_P1;HPM_P2
2023/10/07 00:04:51;;;;;;;;;;;;;;;11.48;100.00;96481.38;10515484;28;1875;-74
2023/10/07 00:09:55;;;;;;;;;;;;;;;11.49;100.00;96480.28;10520636;28;2550;-73
2023/10/07 00:14:57;;;;;;;;;;;;;;;11.37;100.00;96473.22;10515034;28;2231;-74
2023/10/07 00:20:00;;;;;;;;;;;;;;;11.32;100.00;96481.31;10520136;28;2040;-72
2023/10/07 00:25:05;;;;;;;;;;;;;;;11.17;100.00;96473.13;10522029;28;2112;-74
2023/10/07 00:30:13;;;;;;;;;;;;;;;11.10;100.00;96467.16;10518185;28;2037;-73
2023/10/07 00:35:16;;;;;;;;;;;;;;;11.01;100.00;96468.72;10518433;28;1949;-73
2023/10/07 00:40:31;;;;;;;;;;;;;;;10.94;100.00;96462.75;10517219;28;2236;-73
2023/10/07 00:45:34;;;;;;;;;;;;;;;10.87;100.00;96468.34;10516527;28;4705;-74
2023/10/07 00:50:36;;;;;;;;;;;;;;;10.87;100.00;96473.72;10522947;28;1953;-72
2023/10/07 00:55:41;;;;;;;;;;;;;;;10.84;100.00;96479.63;10521313;28;2654;-74
2023/10/07 01:00:48;;;;;;;;;;;;;;;10.73;100.00;96488.69;10520566;28;1996;-73
2023/10/07 01:06:10;;;;;;;;;;;;;;;10.64;100.00;96480.28;10518719;28;1953;-74
2023/10/07 01:11:23;;;;;;;;;;;;;;;10.49;100.00;96496.25;10518218;28;2058;-75
2023/10/07 01:16:40;;;;;;;;;;;;;;;10.38;100.00;96497.25;10521441;28;2232;-74
2023/10/07 01:21:50;;;;;;;;;;;;;;;10.22;100.00;96496.25;10514027;28;2232;-72
2023/10/07 01:26:53;;;;;;;;;;;;;;;10.10;100.00;96491.03;10518891;28;2032;-75
2023/10/07 01:32:00;;;;;;;;;;;;;;;9.95;100.00;96496.25;10521856;28;1980;-75
2023/10/07 01:37:02;;;;;;;;;;;;;;;9.83;100.00;96490.19;10520502;28;2019;-74
2023/10/07 01:42:06;;;;;;;;;;;;;;;9.73;100.00;96499.75;10518118;28;4618;-72
2023/10/07 01:47:23;;;;;;;;;;;;;;;9.60;100.00;96496.63;10517277;28;1972;-73
2023/10/07 01:52:26;;;;;;;;;;;;;;;9.51;100.00;96500.81;10520211;28;1979;-74
2023/10/07 01:57:29;;;;;;;;;;;;;;;9.47;100.00;96495.13;10518174;28;2012;-74
2023/10/07 02:02:32;;;;;;;;;;;;;;;9.41;100.00;96496.09;10517887;28;2035;-71
2023/10/07 02:07:36;;;;;;;;;;;;;;;9.30;100.00;96503.22;10518699;28;2128;-72
2023/10/07 02:12:45;;;;;;;;;;;;;;;9.37;100.00;96497.69;10515640;28;2021;-72
2023/10/07 02:17:48;;;;;;;;;;;;;;;9.26;100.00;96498.59;10510291;28;2230;-73
2023/10/07 02:22:51;;;;;;;;;;;;;;;9.19;100.00;96498.78;10521069;28;1996;-72
2023/10/07 02:27:54;;;;;;;;;;;;;;;9.13;100.00;96492.53;10512815;28;2548;-73
2023/10/07 02:32:56;;;;;;;;;;;;;;;9.12;100.00;96492.78;10512455;28;2082;-72
2023/10/07 02:38:03;;;;;;;;;;;;;;;9.10;100.00;96498.38;10517045;28;1918;-73
2023/10/07 02:43:08;;;;;;;;;;;;;;;9.04;100.00;96504.72;10512742;28;4876;-71
2023/10/07 02:48:11;;;;;;;;;;;;;;;8.99;100.00;96493.94;10520144;28;2000;-72
2023/10/07 02:53:15;;;;;;;;;;;;;;;9.00;100.00;96497.41;10519450;28;2000;-72
2023/10/07 02:58:27;;;;;;;;;;;;;;;8.93;100.00;96503.75;10513928;28;2031;-72
2023/10/07 03:03:38;;;;;;;;;;;;;;;8.94;100.00;96513.44;10518177;28;1950;-72
2023/10/07 03:08:50;;;;;;;;;;;;;;;8.91;100.00;96515.81;10515588;28;1968;-72
2023/10/07 03:13:57;;;;;;;;;;;;;;;8.86;100.00;96513.03;10510390;28;2982;-72
2023/10/07 03:19:07;;;;;;;;;;;;;;;8.79;100.00;96507.84;10513328;28;2040;-73
2023/10/07 03:24:10;;;;;;;;;;;;;;;8.78;100.00;96513.41;10518730;28;1991;-71
2023/10/07 03:29:29;;;;;;;;;;;;;;;8.72;100.00;96517.91;10515881;28;1966;-72
2023/10/07 03:34:32;;;;;;;;;;;;;;;8.69;100.00;96534.47;10512890;28;6352;-71
2023/10/07 03:39:44;;;;;;;;;;;;;;;8.74;100.00;96526.50;10512512;28;5569;-74
2023/10/07 03:44:49;;;;;;;;;;;;;;;8.74;100.00;96531.06;10520441;28;5530;-76
2023/10/07 03:49:53;;;;;;;;;;;;;;;8.74;100.00;96537.22;10523986;28;5354;-72
2023/10/07 03:54:59;;;;;;;;;;;;;;;8.77;100.00;96525.19;10520755;28;2015;-73
2023/10/07 04:00:02;;;;;;;;;;;;;;;8.76;100.00;96520.91;10521839;28;2039;-74
2023/10/07 04:05:10;;;;;;;;;;;;;;;8.74;100.00;96525.69;10524538;28;2079;-74
2023/10/07 04:10:20;;;;;;;;;;;;;;;8.61;100.00;96519.59;10521236;28;5256;-76
2023/10/07 04:15:28;;;;;;;;;;;;;;;8.59;100.00;96513.69;10522384;28;2239;-73
2023/10/07 04:20:50;;;;;;;;;;;;;;;8.65;100.00;96520.75;10522487;28;2691;-74
2023/10/07 04:25:55;;;;;;;;;;;;;;;8.62;100.00;96523.91;10521634;28;2077;-73
2023/10/07 04:30:58;;;;;;;;;;;;;;;8.63;100.00;96524.72;10524415;28;1964;-74
2023/10/07 04:36:04;;;;;;;;;;;;;;;8.64;100.00;96532.50;10511970;28;2043;-74
2023/10/07 04:46:29;;;;;;;;;;;;;;;8.40;100.00;96520.31;10520953;28;1978;-73
2023/10/07 04:51:47;;;;;;;;;;;;;;;8.36;100.00;96527.19;10519494;28;2036;-73
2023/10/07 04:57:00;;;;;;;;;;;;;;;8.34;100.00;96534.66;10523108;28;2202;-72
2023/10/07 05:02:10;;;;;;;;;;;;;;;8.25;100.00;96533.41;10512534;28;2165;-73
2023/10/07 05:07:13;;;;;;;;;;;;;;;8.24;100.00;96529.09;10520171;28;2842;-74
2023/10/07 05:12:15;;;;;;;;;;;;;;;8.36;100.00;96529.88;10519473;28;2120;-72
2023/10/07 05:17:17;;;;;;;;;;;;;;;8.35;100.00;96520.19;10523283;28;2348;-73
2023/10/07 05:22:23;;;;;;;;;;;;;;;8.33;100.00;96528.47;10514571;28;2029;-72
2023/10/07 05:27:26;;;;;;;;;;;;;;;8.39;100.00;96529.38;10522305;28;1976;-76
2023/10/07 05:32:35;;;;;;;;;;;;;;;8.34;100.00;96532.78;10522910;28;1960;-73
2023/10/07 05:37:38;;;;;;;;;;;;;;;8.31;100.00;96537.78;10519641;28;2285;-74
2023/10/07 05:42:42;;;;;;;;;;;;;;;8.34;100.00;96545.38;10519289;28;5262;-72
2023/10/07 05:47:45;;;;;;;;;;;;;;;8.45;100.00;96557.91;10518198;28;2102;-72
2023/10/07 05:52:47;;;;;;;;;;;;;;;8.56;100.00;96556.22;10517005;28;2451;-74
2023/10/07 05:57:52;;;;;;;;;;;;;;;8.60;100.00;96544.78;10518402;28;1933;-74
2023/10/07 06:02:55;;;;;;;;;;;;;;;8.75;100.00;96552.25;10519908;28;1964;-75
2023/10/07 06:07:58;;;;;;;;;;;;;;;8.92;100.00;96554.97;10517806;28;1929;-73
2023/10/07 06:13:08;;;;;;;;;;;;;;;9.19;100.00;96574.69;10515490;28;1925;-72
2023/10/07 06:18:11;;;;;;;;;;;;;;;9.48;100.00;96566.53;10520378;28;1964;-72
2023/10/07 06:23:14;;;;;;;;;;;;;;;9.79;100.00;96561.56;10516531;28;2029;-74
2023/10/07 06:28:29;;;;;;;;;;;;;;;10.06;100.00;96554.41;10519076;28;1961;-74
2023/10/07 06:33:32;;;;;;;;;;;;;;;10.33;100.00;96554.44;10520631;28;2069;-74
2023/10/07 06:38:34;;;;;;;;;;;;;;;10.58;100.00;96555.78;10515885;28;2439;-73
2023/10/07 06:43:37;;;;;;;;;;;;;;;10.73;100.00;96532.50;10516920;28;2121;-75
2023/10/07 06:48:39;;;;;;;;;;;;;;;10.95;100.00;96537.00;10513488;28;1992;-72
2023/10/07 06:53:43;;;;;;;;;;;;;;;11.13;100.00;96530.41;10514458;28;1960;-72
2023/10/07 06:58:47;;;;;;;;;;;;;;;11.29;100.00;96532.94;10517471;28;2010;-73
2023/10/07 07:03:51;;;;;;;;;;;;;;;11.48;100.00;96529.84;10516825;28;1941;-72
2023/10/07 07:08:54;;;;;;;;;;;;;;;11.61;100.00;96529.38;10518169;28;1953;-74
2023/10/07 07:13:57;;;;;;;;;;;;;;;11.80;100.00;96540.50;10514869;28;1985;-72
2023/10/07 07:18:59;;;;;;;;;;;;;;;11.90;100.00;96536.00;10529483;28;2109;-72
2023/10/07 07:24:03;;;;;;;;;;;;;;;12.07;100.00;96540.38;10529576;28;2365;-72
2023/10/07 07:29:06;;;;;;;;;;;;;;;12.18;100.00;96531.25;10529167;28;1972;-73
2023/10/07 07:34:19;;;;;;;;;;;;;;;12.45;100.00;96534.53;10526245;28;2060;-72
2023/10/07 07:39:22;;;;;;;;;;;;;;;12.72;100.00;96533.50;10526178;28;1990;-73
2023/10/07 07:44:33;;;;;;;;;;;;;;;12.93;100.00;96513.56;10526323;28;5218;-73
2023/10/07 07:49:38;;;;;;;;;;;;;;;13.22;100.00;96513.03;10525670;28;2036;-73
2023/10/07 07:54:41;;;;;;;;;;;;;;;13.47;100.00;96521.06;10523746;28;1889;-74
2023/10/07 07:59:44;;;;;;;;;;;;;;;13.88;100.00;96529.09;10525772;28;1906;-73
2023/10/07 08:04:48;;;;;;;;;;;;;;;14.18;100.00;96554.34;10526481;28;1822;-74
2023/10/07 08:09:52;;;;;;;;;;;;;;;14.54;100.00;96550.41;10524304;28;2334;-74
2023/10/07 08:14:58;;;;;;;;;;;;;;;14.80;100.00;96550.25;10522675;28;1783;-74
2023/10/07 08:20:00;;;;;;;;;;;;;;;14.89;100.00;96556.69;10526672;28;1980;-72
2023/10/07 08:25:10;;;;;;;;;;;;;;;15.10;100.00;96543.81;10526370;28;2003;-72
2023/10/07 08:30:14;;;;;;;;;;;;;;;15.34;100.00;96535.75;10528027;28;1434;-74
2023/10/07 08:35:18;;;;;;;;;;;;;;;15.50;100.00;96539.91;10523243;28;1538;-73
2023/10/07 08:40:26;;;;;;;;;;;;;;;15.59;100.00;96530.09;10527113;28;4812;-76
2023/10/07 08:45:29;;;;;;;;;;;;;;;15.78;100.00;96532.09;10523933;28;1621;-75
2023/10/07 08:50:31;;;;;;;;;;;;;;;15.93;100.00;96537.34;10526179;28;1353;-73
2023/10/07 08:55:34;;;;;;;;;;;;;;;16.08;100.00;96530.91;10522869;28;2505;-72
2023/10/07 09:00:39;;;;;;;;;;;;;;;16.18;100.00;96518.03;10525434;28;1906;-72
2023/10/07 09:05:42;;;;;;;;;;;;;;;16.35;100.00;96530.28;10524155;28;1477;-72
2023/10/07 09:10:45;;;;;;;;;;;;;;;16.42;100.00;96528.03;10525393;28;1784;-73
2023/10/07 09:15:52;;;;;;;;;;;;;;;16.64;100.00;96522.81;10527707;28;1439;-75
2023/10/07 09:20:56;;;;;;;;;;;;;;;16.86;100.00;96533.13;10524821;28;1954;-74
2023/10/07 09:25:59;;;;;;;;;;;;;;;17.04;100.00;96526.03;10525177;28;1845;-73
2023/10/07 09:31:06;;;;;;;;;;;;;;;17.27;100.00;96518.88;10528542;28;1445;-73
2023/10/07 09:36:33;;;;;;;;;;;;;;;17.23;100.00;96515.13;10523885;28;1501;-73
2023/10/07 09:41:36;;;;;;;;;;;;;;;17.32;100.00;96512.56;10523727;28;1926;-73
2023/10/07 09:46:40;;;;;;;;;;;;;;;17.48;100.00;96505.72;10518680;28;1501;-73
2023/10/07 09:51:47;;;;;;;;;;;;;;;17.61;100.00;96504.94;10527360;28;1666;-72
2023/10/07 09:56:58;;;;;;;;;;;;;;;17.74;99.57;96501.47;10522645;28;3082;-72
2023/10/07 10:02:05;;;;;;;;;;;;;;;17.96;94.73;96506.22;10520208;28;1910;-71
2023/10/07 10:07:10;;;;;;;;;;;;;;;18.07;92.22;96502.19;10523711;28;1481;-73
2023/10/07 10:12:23;;;;;;;;;;;;;;;18.32;90.61;96495.41;10521771;28;1853;-72
2023/10/07 10:17:26;;;;;;;;;;;;;;;18.32;88.49;96489.13;10519837;28;1545;-72
2023/10/07 10:22:29;;;;;;;;;;;;;;;18.44;91.81;96483.16;10524880;28;2019;-72
2023/10/07 10:27:31;;;;;;;;;;;;;;;18.53;93.46;96479.41;10521605;28;1474;-73
2023/10/07 10:32:34;;;;;;;;;;;;;;;18.79;94.87;96482.38;10522676;28;1673;-75
2023/10/07 10:37:37;;;;;;;;;;;;;;;18.96;98.50;96478.16;10523604;28;1477;-73
2023/10/07 10:42:40;;;;;;;;;;;;;;;19.03;91.74;96484.81;10521081;28;4814;-73
2023/10/07 10:47:42;;;;;;;;;;;;;;;19.43;80.25;96477.50;10517863;28;1422;-72
2023/10/07 10:52:48;;;;;;;;;;;;;;;20.16;70.33;96477.16;10534493;28;1784;-73
2023/10/07 10:57:52;;;;;;;;;;;;;;;20.61;67.05;96466.78;10533551;28;1496;-73
2023/10/07 11:02:54;;;;;;;;;;;;;;;21.22;62.79;96453.06;10541602;28;1930;-72
2023/10/07 11:07:57;;;;;;;;;;;;;;;21.54;64.13;96444.31;10536068;28;1568;-72
2023/10/07 11:13:00;;;;;;;;;;;;;;;21.92;60.57;96448.19;10536161;28;1463;-72
2023/10/07 11:18:12;;;;;;;;;;;;;;;22.01;58.15;96463.44;10534511;28;1481;-72
2023/10/07 11:23:15;;;;;;;;;;;;;;;21.79;54.61;96445.34;10533438;28;3350;-74
2023/10/07 11:28:22;;;;;;;;;;;;;;;21.75;47.86;96432.63;10535596;28;1485;-72
2023/10/07 11:33:25;;;;;;;;;;;;;;;21.70;43.91;96432.84;10533941;28;1670;-71
2023/10/07 11:38:28;;;;;;;;;;;;;;;21.29;44.08;96437.00;10538688;28;1652;-78
2023/10/07 11:43:30;;;;;;;;;;;;;;;21.21;43.71;96437.81;10538911;28;4938;-73
2023/10/07 11:48:33;;;;;;;;;;;;;;;21.24;46.66;96432.47;10539891;28;1498;-73
2023/10/07 11:53:35;;;;;;;;;;;;;;;21.05;46.64;96435.56;10535511;28;1518;-72
2023/10/07 11:58:38;;;;;;;;;;;;;;;21.02;46.39;96443.63;10532716;28;1525;-73
2023/10/07 12:03:42;;;;;;;;;;;;;;;21.11;47.40;96452.59;10532723;28;1977;-73
2023/10/07 12:08:45;;;;;;;;;;;;;;;21.33;46.89;96439.91;10525416;28;1643;-73
2023/10/07 12:13:47;;;;;;;;;;;;;;;21.16;48.23;96438.78;10528796;28;1559;-72
2023/10/07 12:18:50;;;;;;;;;;;;;;;21.26;50.22;96432.16;10526802;28;1574;-73
2023/10/07 12:23:54;;;;;;;;;;;;;;;20.90;53.54;96441.56;10528115;28;2688;-73
2023/10/07 12:28:57;;;;;;;;;;;;;;;20.94;55.48;96437.06;10526870;28;1628;-73
2023/10/07 12:33:59;;;;;;;;;;;;;;;21.36;51.08;96431.84;10525213;28;1874;-73
2023/10/07 12:39:02;;;;;;;;;;;;;;;21.46;51.29;96438.88;10523583;28;1889;-72
2023/10/07 12:44:13;;;;;;;;;;;;;;;21.47;48.81;96445.97;10523394;28;1878;-73
2023/10/07 12:49:15;;;;;;;;;;;;;;;21.39;49.71;96447.59;10521673;28;1961;-73
2023/10/07 12:54:18;;;;;;;;;;;;;;;21.46;49.83;96456.09;10516151;28;1899;-72
2023/10/07 12:59:22;;;;;;;;;;;;;;;21.24;51.72;96450.81;10512888;28;2012;-72
2023/10/07 13:04:29;;;;;;;;;;;;;;;20.80;54.15;96439.16;10517881;28;1967;-73
2023/10/07 13:09:31;;;;;;;;;;;;;;;21.10;54.23;96437.34;10520383;28;2517;-74
2023/10/07 13:14:34;;;;;;;;;;;;;;;21.14;52.33;96427.38;10519773;28;2223;-73
2023/10/07 13:19:36;;;;;;;;;;;;;;;21.22;54.38;96442.13;10520641;28;1905;-74
2023/10/07 13:24:40;;;;;;;;;;;;;;;21.05;50.05;96441.03;10520492;28;1981;-73
2023/10/07 13:29:42;;;;;;;;;;;;;;;21.22;44.54;96436.66;10513201;28;1951;-73
2023/10/07 13:34:45;;;;;;;;;;;;;;;21.46;43.53;96434.22;10519200;28;1890;-73
2023/10/07 13:39:48;;;;;;;;;;;;;;;21.63;40.92;96429.78;10518911;28;1987;-73
2023/10/07 13:44:50;;;;;;;;;;;;;;;21.34;41.67;96439.56;10517467;28;1993;-73
2023/10/07 13:49:53;;;;;;;;;;;;;;;21.28;42.31;96449.03;10519631;28;2102;-72
2023/10/07 13:55:18;;;;;;;;;;;;;;;20.74;44.28;96448.63;10518068;28;2648;-73
2023/10/07 14:00:28;;;;;;;;;;;;;;;20.77;44.83;96448.00;10523271;28;1905;-72
2023/10/07 14:05:33;;;;;;;;;;;;;;;20.96;45.06;96439.47;10523179;28;2021;-73
2023/10/07 14:10:36;;;;;;;;;;;;;;;21.01;46.27;96426.44;10512773;28;1921;-73
2023/10/07 14:15:39;;;;;;;;;;;;;;;20.88;48.07;96438.34;10513570;28;1928;-76
2023/10/07 14:20:43;;;;;;;;;;;;;;;20.71;50.75;96438.34;10518297;28;1953;-75
2023/10/07 14:25:47;;;;;;;;;;;;;;;20.26;50.70;96435.91;10520083;28;1957;-74
2023/10/07 14:30:49;;;;;;;;;;;;;;;20.03;50.31;96445.31;10520308;28;1938;-72
2023/10/07 14:35:52;;;;;;;;;;;;;;;19.76;53.83;96452.63;10513091;28;2050;-73
2023/10/07 14:40:54;;;;;;;;;;;;;;;19.66;52.59;96452.94;10522969;28;4868;-73
2023/10/07 14:45:57;;;;;;;;;;;;;;;19.67;53.75;96460.81;10519434;28;1875;-72
2023/10/07 14:50:59;;;;;;;;;;;;;;;19.65;52.81;96470.41;10518332;28;1886;-73
2023/10/07 14:56:02;;;;;;;;;;;;;;;19.65;56.65;96473.13;10515493;28;1981;-75
2023/10/07 15:01:06;;;;;;;;;;;;;;;19.70;54.49;96476.53;10520291;28;1910;-74
2023/10/07 15:06:08;;;;;;;;;;;;;;;19.69;58.88;96485.03;10520027;28;1910;-74
2023/10/07 15:11:12;;;;;;;;;;;;;;;19.66;59.19;96491.13;10518213;28;1867;-74
2023/10/07 15:16:14;;;;;;;;;;;;;;;19.43;62.87;96472.03;10519095;28;1973;-72
2023/10/07 15:21:17;;;;;;;;;;;;;;;19.22;55.43;96487.34;10522418;28;1972;-72
2023/10/07 15:26:23;;;;;;;;;;;;;;;19.10;51.48;96473.47;10514809;28;2154;-73
2023/10/07 15:31:26;;;;;;;;;;;;;;;19.13;44.99;96465.47;10519412;28;1856;-73
2023/10/07 15:36:28;;;;;;;;;;;;;;;18.99;43.15;96483.81;10524029;28;1807;-71
2023/10/07 15:41:31;;;;;;;;;;;;;;;18.88;43.04;96494.13;10530559;28;4714;-72
2023/10/07 15:46:36;;;;;;;;;;;;;;;18.67;44.42;96489.47;10527696;28;1870;-73
2023/10/07 15:51:38;;;;;;;;;;;;;;;18.46;47.95;96489.91;10526283;28;1812;-71
2023/10/07 15:56:41;;;;;;;;;;;;;;;18.34;47.20;96503.25;10524130;28;1854;-71
2023/10/07 16:01:44;;;;;;;;;;;;;;;18.32;49.31;96498.13;10525007;28;1910;-73
2023/10/07 16:06:48;;;;;;;;;;;;;;;18.18;51.30;96483.72;10521742;28;1902;-73
2023/10/07 16:11:51;;;;;;;;;;;;;;;18.20;53.50;96499.75;10522913;28;1890;-73
2023/10/07 16:16:54;;;;;;;;;;;;;;;18.09;55.31;96510.03;10522777;28;2144;-73
2023/10/07 16:21:58;;;;;;;;;;;;;;;17.97;57.14;96490.69;10523134;28;1913;-75
2023/10/07 16:27:01;;;;;;;;;;;;;;;17.76;61.66;96490.31;10519495;28;2541;-74
2023/10/07 16:32:05;;;;;;;;;;;;;;;17.68;62.83;96485.50;10526386;28;1978;-73
2023/10/07 16:37:13;;;;;;;;;;;;;;;17.62;61.49;96501.13;10522461;28;1827;-72
2023/10/07 16:42:16;;;;;;;;;;;;;;;17.51;61.08;96500.53;10522971;28;2043;-72
2023/10/07 16:47:19;;;;;;;;;;;;;;;17.42;61.73;96507.72;10525650;28;1865;-71
2023/10/07 16:52:21;;;;;;;;;;;;;;;17.29;62.83;96513.94;10518149;28;1870;-73
2023/10/07 16:57:24;;;;;;;;;;;;;;;17.25;63.39;96507.53;10522958;28;1844;-73
2023/10/07 17:02:29;;;;;;;;;;;;;;;17.21;61.62;96509.22;10525591;28;1922;-71
2023/10/07 17:07:32;;;;;;;;;;;;;;;17.09;62.92;96509.66;10524679;28;1838;-71
2023/10/07 17:12:34;;;;;;;;;;;;;;;17.10;62.50;96511.28;10525077;28;2388;-73
2023/10/07 17:17:37;;;;;;;;;;;;;;;17.03;63.03;96510.84;10519967;28;1959;-71
2023/10/07 17:22:39;;;;;;;;;;;;;;;17.08;60.07;96508.06;10519205;28;1995;-73
2023/10/07 17:27:42;;;;;;;;;;;;;;;17.03;59.36;96516.28;10519476;28;2038;-73
2023/10/07 17:32:44;;;;;;;;;;;;;;;17.00;59.03;96516.91;10523657;28;1882;-73
2023/10/07 17:37:47;;;;;;;;;;;;;;;16.95;59.62;96517.78;10522791;28;1867;-73
2023/10/07 17:42:50;;;;;;;;;;;;;;;16.86;58.32;96510.59;10519273;28;4943;-72
2023/10/07 17:47:53;;;;;;;;;;;;;;;16.83;58.62;96505.75;10520688;28;1870;-73
2023/10/07 17:52:56;;;;;;;;;;;;;;;16.66;58.01;96509.75;10519523;28;2038;-73
2023/10/07 17:57:59;;;;;;;;;;;;;;;16.46;58.65;96512.78;10521184;28;2411;-73
2023/10/07 18:03:02;;;;;;;;;;;;;;;16.36;58.36;96508.31;10521151;28;2044;-72
2023/10/07 18:08:06;;;;;;;;;;;;;;;16.41;58.06;96510.13;10517122;28;1966;-73
2023/10/07 18:13:09;;;;;;;;;;;;;;;16.49;57.66;96512.22;10510724;28;1909;-72
2023/10/07 18:18:11;;;;;;;;;;;;;;;16.50;55.56;96505.69;10518408;28;1901;-73
2023/10/07 18:23:14;;;;;;;;;;;;;;;16.54;54.72;96497.72;10517526;28;2102;-72
2023/10/07 18:28:17;;;;;;;;;;;;;;;16.56;54.03;96490.13;10512000;28;1922;-73
2023/10/07 18:33:19;;;;;;;;;;;;;;;16.61;54.32;96498.19;10521479;28;1987;-75
2023/10/07 18:38:22;;;;;;;;;;;;;;;16.57;52.40;96492.53;10516266;28;1925;-72
2023/10/07 18:43:24;;;;;;;;;;;;;;;16.56;53.19;96487.41;10513095;28;4734;-73
2023/10/07 18:48:27;;;;;;;;;;;;;;;16.54;53.93;96487.72;10515006;28;2008;-74
2023/10/07 18:53:30;;;;;;;;;;;;;;;16.49;53.64;96490.50;10514236;28;1931;-71
2023/10/07 18:58:32;;;;;;;;;;;;;;;16.52;54.25;96489.91;10518312;28;1886;-73
2023/10/07 19:03:35;;;;;;;;;;;;;;;16.52;53.73;96484.47;10512311;28;2003;-74
2023/10/07 19:08:37;;;;;;;;;;;;;;;16.53;54.78;96487.97;10517311;28;1961;-72
2023/10/07 19:13:40;;;;;;;;;;;;;;;16.51;55.82;96479.34;10523813;28;1898;-72
2023/10/07 19:18:42;;;;;;;;;;;;;;;16.52;55.46;96481.75;10521110;28;2101;-73
2023/10/07 19:23:45;;;;;;;;;;;;;;;16.53;55.90;96482.56;10518414;28;2126;-77
2023/10/07 19:28:48;;;;;;;;;;;;;;;16.52;56.11;96483.66;10523790;28;2546;-76
2023/10/07 19:33:50;;;;;;;;;;;;;;;16.51;56.89;96477.44;10524071;28;1885;-72
2023/10/07 19:38:53;;;;;;;;;;;;;;;16.51;57.38;96482.84;10522071;28;1963;-73
2023/10/07 19:43:56;;;;;;;;;;;;;;;16.48;56.52;96483.47;10524090;28;4856;-73
2023/10/07 19:48:58;;;;;;;;;;;;;;;16.49;57.80;96485.88;10521246;28;2054;-72
2023/10/07 19:54:02;;;;;;;;;;;;;;;16.51;56.49;96488.28;10525156;28;2054;-72
2023/10/07 19:59:05;;;;;;;;;;;;;;;16.51;57.17;96488.28;10520000;28;1909;-72
2023/10/07 20:04:08;;;;;;;;;;;;;;;16.48;56.86;96495.13;10521363;28;1918;-72
2023/10/07 20:09:11;;;;;;;;;;;;;;;16.60;56.18;96497.38;10521676;28;1854;-73
2023/10/07 20:14:14;;;;;;;;;;;;;;;16.54;59.26;96487.72;10518062;28;2484;-73
2023/10/07 20:19:17;;;;;;;;;;;;;;;16.46;60.51;96469.34;10523007;28;1909;-72
2023/10/07 20:24:20;;;;;;;;;;;;;;;16.43;60.83;96456.38;10515933;28;2272;-73
2023/10/07 20:29:22;;;;;;;;;;;;;;;16.43;60.36;96448.25;10520713;28;1973;-72
2023/10/07 20:34:25;;;;;;;;;;;;;;;16.54;59.65;96428.00;10520136;28;1882;-73
2023/10/07 20:39:27;;;;;;;;;;;;;;;16.57;57.89;96432.84;10521810;28;1886;-73
2023/10/07 20:44:31;;;;;;;;;;;;;;;16.67;55.64;96424.53;10520569;28;4801;-73
2023/10/07 20:49:33;;;;;;;;;;;;;;;16.77;55.63;96420.84;10521997;28;2008;-73
2023/10/07 20:54:36;;;;;;;;;;;;;;;16.78;54.46;96427.09;10519617;28;1883;-71
2023/10/07 20:59:41;;;;;;;;;;;;;;;16.88;53.00;96430.47;10519086;28;1905;-72
2023/10/07 21:04:43;;;;;;;;;;;;;;;16.95;51.88;96421.91;10525666;28;1906;-73
2023/10/07 21:09:46;;;;;;;;;;;;;;;16.95;50.94;96421.91;10518704;28;1883;-74
2023/10/07 21:14:49;;;;;;;;;;;;;;;16.97;50.59;96420.50;10520162;28;1918;-74
2023/10/07 21:19:53;;;;;;;;;;;;;;;16.97;50.09;96408.84;10527910;28;1909;-72
2023/10/07 21:24:56;;;;;;;;;;;;;;;17.01;49.20;96407.16;10524089;28;1945;-74
2023/10/07 21:30:03;;;;;;;;;;;;;;;16.98;48.50;96416.69;10516746;28;2682;-72
2023/10/07 21:35:05;;;;;;;;;;;;;;;17.09;46.56;96416.50;10519752;28;1905;-74
2023/10/07 21:40:08;;;;;;;;;;;;;;;17.13;46.39;96431.94;10519490;28;4816;-72
2023/10/07 21:45:10;;;;;;;;;;;;;;;17.24;45.17;96444.22;10520781;28;1910;-73
2023/10/07 21:50:15;;;;;;;;;;;;;;;17.34;44.50;96443.22;10518987;28;1905;-73
2023/10/07 21:55:19;;;;;;;;;;;;;;;17.22;43.91;96451.84;10516931;28;1902;-72
2023/10/07 22:00:35;;;;;;;;;;;;;;;17.16;44.57;96438.66;10515608;28;1886;-72
2023/10/07 22:05:39;;;;;;;;;;;;;;;17.09;44.48;96444.47;10521633;28;1957;-72
2023/10/07 22:10:44;;;;;;;;;;;;;;;16.79;45.83;96448.50;10518916;28;1891;-73
2023/10/07 22:15:51;;;;;;;;;;;;;;;16.72;46.13;96462.47;10520143;28;2568;-73
2023/10/07 22:20:55;;;;;;;;;;;;;;;16.70;46.77;96458.44;10520963;28;1957;-72
2023/10/07 22:25:59;;;;;;;;;;;;;;;16.42;47.79;96460.22;10517403;28;1981;-74
2023/10/07 22:31:06;;;;;;;;;;;;;;;16.25;49.98;96440.91;10517947;28;1967;-71
2023/10/07 22:36:17;;;;;;;;;;;;;;;16.07;50.75;96443.31;10519367;28;1831;-73
2023/10/07 22:41:26;;;;;;;;;;;;;;;16.11;50.48;96436.22;10519804;28;1956;-72
2023/10/07 22:46:31;;;;;;;;;;;;;;;16.02;52.16;96432.53;10514466;28;1938;-73
2023/10/07 22:51:35;;;;;;;;;;;;;;;16.13;51.07;96434.03;10514583;28;1930;-71
2023/10/07 22:56:38;;;;;;;;;;;;;;;16.19;51.14;96432.84;10518073;28;1839;-71
2023/10/07 23:01:45;;;;;;;;;;;;;;;16.26;51.09;96434.38;10518814;28;2629;-70
2023/10/07 23:06:56;;;;;;;;;;;;;;;16.21;51.58;96424.41;10515447;28;1975;-72
2023/10/07 23:12:03;;;;;;;;;;;;;;;16.10;53.10;96429.19;10517884;28;1862;-72
2023/10/07 23:17:07;;;;;;;;;;;;;;;16.08;53.17;96423.22;10517493;28;1930;-72
2023/10/07 23:22:14;;;;;;;;;;;;;;;16.03;53.80;96427.91;10517205;28;1913;-72
2023/10/07 23:27:21;;;;;;;;;;;;;;;16.00;53.67;96431.22;10518398;28;2002;-72
2023/10/07 23:32:36;;;;;;;;;;;;;;;16.01;54.74;96436.34;10516806;28;1998;-73
2023/10/07 23:37:40;;;;;;;;;;;;;;;16.10;54.31;96442.75;10512727;28;1999;-73
2023/10/07 23:42:46;;;;;;;;;;;;;;;16.16;54.97;96438.06;10513881;28;2031;-72
2023/10/07 23:47:49;;;;;;;;;;;;;;;16.22;55.48;96436.88;10517392;28;2564;-75
2023/10/07 23:52:55;;;;;;;;;;;;;;;16.25;56.59;96430.06;10516177;28;1886;-72
2023/10/07 23:58:06;;;;;;;;;;;;;;;16.24;57.85;96429.25;10519432;28;2148;-73
